Time;durP1;ratioP1;P1;durP2;ratioP2;P2;SDS_P1;SDS_P2;PMS_P1;PMS_P2;Temp;Humidity;BMP_temperature;BMP_pressure;BME280_temperature;BME280_humidity;BME280_pressure;Samples;Min_cycle;Max_cycle;Signal;HPM_P1;HPM_P2
2021/05/19 00:00:29;;;;;;;0.57;0.57;;;;;;;7.60;100.00;95668.16;1039298;28;20030;-69
2021/05/19 00:00:59;;;;;;;3.55;0.90;;;;;;;7.58;100.00;95667.63;1043282;28;20029;-69
2021/05/19 00:01:30;;;;;;;0.93;0.73;;;;;;;7.61;100.00;95669.72;1043188;28;20036;-70
2021/05/19 00:02:00;;;;;;;2.25;0.73;;;;;;;7.53;100.00;95657.13;1043225;28;20458;-70
2021/05/19 00:02:31;;;;;;;0.50;0.50;;;;;;;7.51;100.00;95656.56;1043511;28;20024;-69
2021/05/19 00:03:01;;;;;;;5.20;0.80;;;;;;;7.59;100.00;95669.19;1039420;28;20021;-70
2021/05/19 00:03:31;;;;;;;1.65;0.90;;;;;;;7.52;100.00;95658.16;1039062;28;20026;-69
2021/05/19 00:04:02;;;;;;;1.38;0.70;;;;;;;7.54;100.00;95653.47;1041808;28;20143;-69
2021/05/19 00:04:33;;;;;;;3.70;1.02;;;;;;;7.63;100.00;95666.88;1043540;28;20027;-69
2021/05/19 00:05:04;;;;;;;1.38;0.73;;;;;;;7.58;100.00;95659.81;1043492;28;20036;-70
2021/05/19 00:05:34;;;;;;;0.70;0.70;;;;;;;7.63;100.00;95672.09;1039183;28;20112;-70
2021/05/19 00:06:05;;;;;;;2.60;0.60;;;;;;;7.53;100.00;95651.91;1042717;28;20037;-68
2021/05/19 00:06:35;;;;;;;0.45;0.45;;;;;;;7.57;100.00;95659.00;1043525;28;20032;-69
2021/05/19 00:07:06;;;;;;;2.00;0.55;;;;;;;7.62;100.00;95662.72;1042810;28;20025;-70
2021/05/19 00:07:36;;;;;;;1.33;0.68;;;;;;;7.62;100.00;95666.09;1039052;28;20040;-68
2021/05/19 00:08:07;;;;;;;1.05;0.57;;;;;;;7.64;100.00;95669.25;1038739;28;20033;-70
2021/05/19 00:08:39;;;;;;;2.63;0.70;;;;;;;7.64;100.00;95665.84;1039332;28;20545;-68
2021/05/19 00:09:11;;;;;;;2.25;0.63;;;;;;;7.61;100.00;95667.13;1042665;28;20781;-69
2021/05/19 00:09:41;;;;;;;3.72;0.45;;;;;;;7.63;100.00;95667.66;1043338;28;20263;-69
2021/05/19 00:10:12;;;;;;;3.45;0.60;;;;;;;7.56;100.00;95657.41;1043498;28;20283;-69
2021/05/19 00:10:42;;;;;;;0.68;0.68;;;;;;;7.65;100.00;95664.84;1047098;28;20029;-70
2021/05/19 00:11:13;;;;;;;5.60;1.27;;;;;;;7.65;100.00;95670.06;1043283;28;20029;-69
2021/05/19 00:11:46;;;;;;;0.55;0.50;;;;;;;7.66;100.00;95666.41;1047523;28;20794;-69
2021/05/19 00:12:17;;;;;;;1.13;0.80;;;;;;;7.65;100.00;95665.63;1043546;28;20029;-69
2021/05/19 00:12:47;;;;;;;2.17;0.80;;;;;;;7.63;100.00;95662.44;1047923;28;20255;-68
2021/05/19 00:13:18;;;;;;;1.33;0.70;;;;;;;7.64;100.00;95671.84;1043373;28;20036;-69
2021/05/19 00:13:50;;;;;;;2.53;0.57;;;;;;;7.65;100.00;95665.63;1039605;28;20036;-69
2021/05/19 00:14:20;;;;;;;3.55;0.70;;;;;;;7.61;100.00;95659.28;1034651;28;20022;-69
2021/05/19 00:14:51;;;;;;;0.80;0.60;;;;;;;7.62;100.00;95657.50;1035924;28;20265;-68
2021/05/19 00:15:21;;;;;;;2.65;0.70;;;;;;;7.63;100.00;95659.84;1039654;28;20443;-69
2021/05/19 00:15:52;;;;;;;2.38;0.77;;;;;;;7.64;100.00;95664.03;1038414;28;20088;-69
2021/05/19 00:16:22;;;;;;;1.05;0.70;;;;;;;7.65;100.00;95664.84;1043011;28;20040;-68
2021/05/19 00:16:53;;;;;;;1.35;0.65;;;;;;;7.65;100.00;95660.41;1043427;28;20058;-69
2021/05/19 00:17:23;;;;;;;1.55;0.70;;;;;;;7.64;100.00;95666.63;1043230;28;20032;-69
2021/05/19 00:17:54;;;;;;;1.33;0.82;;;;;;;7.62;100.00;95663.50;1042997;28;20036;-68
2021/05/19 00:18:24;;;;;;;1.13;0.77;;;;;;;7.66;100.00;95664.56;1043094;28;20124;-67
2021/05/19 00:18:55;;;;;;;2.00;1.00;;;;;;;7.63;100.00;95657.22;1043303;28;20033;-69
2021/05/19 00:19:25;;;;;;;2.47;0.68;;;;;;;7.66;100.00;95659.34;1042643;28;20025;-69
2021/05/19 00:19:56;;;;;;;2.60;0.75;;;;;;;7.67;100.00;95667.97;1039250;28;20037;-69
2021/05/19 00:20:26;;;;;;;8.35;0.98;;;;;;;7.64;100.00;95656.19;1038937;28;20407;-68
2021/05/19 00:20:56;;;;;;;2.60;0.75;;;;;;;7.59;100.00;95655.38;1043324;28;20059;-68
2021/05/19 00:21:27;;;;;;;2.10;0.75;;;;;;;7.66;100.00;95651.50;1047417;28;20094;-68
2021/05/19 00:21:57;;;;;;;0.90;0.65;;;;;;;7.63;100.00;95662.44;1047462;28;20017;-68
2021/05/19 00:22:28;;;;;;;1.02;0.75;;;;;;;7.64;100.00;95658.78;1042129;28;20020;-69
2021/05/19 00:22:58;;;;;;;1.75;0.60;;;;;;;7.58;100.00;95651.97;1042224;28;20021;-69
2021/05/19 00:23:29;;;;;;;1.48;0.75;;;;;;;7.58;100.00;95654.56;1039018;28;20120;-69
2021/05/19 00:23:59;;;;;;;1.20;0.68;;;;;;;7.53;100.00;95644.06;1039130;28;20025;-69
2021/05/19 00:24:30;;;;;;;0.80;0.68;;;;;;;7.64;100.00;95658.78;1034499;28;20025;-69
2021/05/19 00:25:00;;;;;;;2.33;0.63;;;;;;;7.66;100.00;95656.75;1035223;28;20051;-68
2021/05/19 00:25:31;;;;;;;1.20;0.70;;;;;;;7.60;100.00;95649.88;1039208;28;20016;-69
2021/05/19 00:26:01;;;;;;;1.00;0.60;;;;;;;7.63;100.00;95652.00;1042676;28;20033;-67
2021/05/19 00:26:31;;;;;;;2.08;0.80;;;;;;;7.59;100.00;95653.53;1051551;28;20078;-69
2021/05/19 00:27:02;;;;;;;0.98;0.70;;;;;;;7.63;100.00;95656.44;1051580;28;20019;-68
2021/05/19 00:27:32;;;;;;;3.53;0.68;;;;;;;7.63;100.00;95659.06;1047361;28;20732;-69
2021/05/19 00:28:04;;;;;;;1.35;0.60;;;;;;;7.54;100.00;95637.81;1042771;28;20407;-69
2021/05/19 00:28:35;;;;;;;1.83;0.65;;;;;;;7.55;100.00;95645.41;1039093;28;20112;-70
2021/05/19 00:29:09;;;;;;;1.52;0.70;;;;;;;7.63;100.00;95657.22;1035100;28;20272;-68
2021/05/19 00:29:41;;;;;;;1.70;0.70;;;;;;;7.63;100.00;95659.06;1038945;28;20055;-69
2021/05/19 00:30:16;;;;;;;1.50;0.75;;;;;;;7.61;100.00;95659.28;1034867;28;20778;-69
2021/05/19 00:30:50;;;;;;;1.38;0.60;;;;;;;7.61;100.00;95655.88;1034837;28;20400;-69
2021/05/19 00:31:25;;;;;;;0.60;0.57;;;;;;;7.63;100.00;95656.44;1046503;28;20263;-69
2021/05/19 00:31:56;;;;;;;1.77;0.60;;;;;;;7.60;100.00;95657.72;1049390;28;20262;-69
2021/05/19 00:32:26;;;;;;;0.60;0.60;;;;;;;7.60;100.00;95655.09;1047386;28;20267;-70
2021/05/19 00:32:57;;;;;;;0.60;0.60;;;;;;;7.59;100.00;95657.97;1047163;28;20482;-69
2021/05/19 00:33:27;;;;;;;2.53;0.80;;;;;;;7.58;100.00;95657.19;1039603;28;20561;-68
2021/05/19 00:33:58;;;;;;;1.15;0.55;;;;;;;7.49;100.00;95646.38;1039334;28;20498;-70
2021/05/19 00:34:28;;;;;;;1.65;0.55;;;;;;;7.50;100.00;95652.38;1041354;28;20024;-68
2021/05/19 00:34:59;;;;;;;2.53;0.75;;;;;;;7.53;100.00;95659.72;1038660;28;20025;-69
2021/05/19 00:35:29;;;;;;;1.95;0.70;;;;;;;7.49;100.00;95640.38;1038998;28;20029;-69
2021/05/19 00:36:00;;;;;;;1.65;0.57;;;;;;;7.53;100.00;95651.91;1034620;28;20120;-70
2021/05/19 00:36:30;;;;;;;3.42;0.70;;;;;;;7.52;100.00;95656.34;1043074;28;20084;-69
2021/05/19 00:37:01;;;;;;;7.70;0.65;;;;;;;7.56;100.00;95656.63;1043218;28;20274;-69
2021/05/19 00:37:31;;;;;;;0.50;0.40;;;;;;;7.55;100.00;95658.47;1043347;28;20021;-69
2021/05/19 00:38:01;;;;;;;1.85;0.80;;;;;;;7.52;100.00;95655.56;1047065;28;20548;-69
2021/05/19 00:38:32;;;;;;;3.55;0.93;;;;;;;7.55;100.00;95660.28;1039387;28;20522;-69
2021/05/19 00:39:07;;;;;;;2.53;0.60;;;;;;;7.51;100.00;95657.38;1043525;28;20407;-69
2021/05/19 00:39:37;;;;;;;1.90;0.60;;;;;;;7.57;100.00;95655.59;1045061;28;20108;-68
2021/05/19 00:40:09;;;;;;;1.77;0.70;;;;;;;7.64;100.00;95665.84;1048990;28;20660;-69
2021/05/19 00:40:39;;;;;;;1.40;0.75;;;;;;;7.60;100.00;95656.94;1055376;28;20424;-68
2021/05/19 00:41:10;;;;;;;1.67;0.85;;;;;;;7.57;100.00;95661.59;1055540;28;20729;-68
2021/05/19 00:41:41;;;;;;;1.08;0.80;;;;;;;7.59;100.00;95661.38;1042972;28;20025;-69
2021/05/19 00:42:13;;;;;;;1.17;0.82;;;;;;;7.58;100.00;95659.81;1043667;28;20116;-69
2021/05/19 00:42:43;;;;;;;2.42;0.80;;;;;;;7.58;100.00;95659.81;1039777;28;20295;-68
2021/05/19 00:43:14;;;;;;;0.57;0.57;;;;;;;7.58;100.00;95667.63;1043188;28;20271;-69
2021/05/19 00:43:44;;;;;;;2.58;0.80;;;;;;;7.58;100.00;95667.63;1031445;28;20396;-68
2021/05/19 00:44:18;;;;;;;1.33;0.85;;;;;;;7.56;100.00;95661.84;1035908;28;20395;-68
2021/05/19 00:44:48;;;;;;;2.58;0.70;;;;;;;7.54;100.00;95659.50;1037972;28;20033;-69
2021/05/19 00:45:19;;;;;;;4.15;1.10;;;;;;;7.54;100.00;95662.13;1043775;28;20267;-69
2021/05/19 00:45:49;;;;;;;2.35;0.75;;;;;;;7.55;100.00;95662.91;1043679;28;20023;-69
2021/05/19 00:46:20;;;;;;;0.82;0.60;;;;;;;7.47;100.00;95652.88;1045341;28;20036;-70
2021/05/19 00:46:52;;;;;;;1.20;0.80;;;;;;;7.55;100.00;95661.06;1043355;28;20085;-70
2021/05/19 00:47:32;;;;;;;1.90;0.90;;;;;;;7.47;100.00;95647.66;1043630;28;20877;-68
2021/05/19 00:48:03;;;;;;;3.20;0.70;;;;;;;7.54;100.00;95663.91;1039609;28;20288;-69
2021/05/19 00:48:34;;;;;;;1.30;0.57;;;;;;;7.50;100.00;95657.59;1039480;28;20403;-68
2021/05/19 00:49:05;;;;;;;2.40;0.80;;;;;;;7.44;100.00;95653.34;1043764;28;20040;-69
2021/05/19 00:49:35;;;;;;;1.17;0.70;;;;;;;7.54;100.00;95663.91;1035409;28;20026;-69
2021/05/19 00:50:11;;;;;;;1.77;1.00;;;;;;;7.53;100.00;95663.13;1039079;28;20030;-68
2021/05/19 00:50:41;;;;;;;2.10;0.90;;;;;;;7.45;100.00;95654.97;1040236;28;20033;-68
2021/05/19 00:51:12;;;;;;;1.17;0.73;;;;;;;7.51;100.00;95660.00;1041041;28;20279;-69
2021/05/19 00:51:42;;;;;;;1.75;0.80;;;;;;;7.54;100.00;95669.13;1043850;28;20029;-69
2021/05/19 00:52:12;;;;;;;1.65;0.90;;;;;;;7.52;100.00;95666.78;1043593;28;20099;-69
2021/05/19 00:52:43;;;;;;;1.65;0.70;;;;;;;7.55;100.00;95670.72;1043866;28;20028;-70
2021/05/19 00:53:13;;;;;;;1.92;1.00;;;;;;;7.54;100.00;95666.53;1045301;28;20028;-68
2021/05/19 00:53:44;;;;;;;1.08;0.68;;;;;;;7.54;100.00;95669.13;1051953;28;20028;-69
2021/05/19 00:54:14;;;;;;;2.75;0.75;;;;;;;7.54;100.00;95666.53;1051913;28;20508;-69
2021/05/19 00:54:45;;;;;;;2.38;0.93;;;;;;;7.50;100.00;95668.84;1048147;28;20425;-68
2021/05/19 00:55:15;;;;;;;2.53;0.85;;;;;;;7.47;100.00;95658.88;1050031;28;20090;-68
2021/05/19 00:55:46;;;;;;;1.98;1.00;;;;;;;7.52;100.00;95666.00;1038477;28;20083;-68
2021/05/19 00:56:16;;;;;;;1.48;0.90;;;;;;;7.51;100.00;95669.63;1039259;28;20028;-70
2021/05/19 00:56:47;;;;;;;1.13;0.65;;;;;;;7.50;100.00;95662.81;1035641;28;20218;-68
2021/05/19 00:57:17;;;;;;;1.02;0.90;;;;;;;7.49;100.00;95666.47;1039688;28;20103;-70
2021/05/19 00:57:50;;;;;;;5.78;1.15;;;;;;;7.42;100.00;95658.06;1035239;28;20462;-69
2021/05/19 00:58:20;;;;;;;2.75;0.90;;;;;;;7.50;100.00;95662.81;1039236;28;20045;-69
2021/05/19 00:58:51;;;;;;;1.52;0.80;;;;;;;7.49;100.00;95662.03;1041158;28;20378;-70
2021/05/19 00:59:22;;;;;;;2.65;1.10;;;;;;;7.49;100.00;95661.25;1043539;28;20017;-68
2021/05/19 00:59:52;;;;;;;1.98;1.02;;;;;;;7.46;100.00;95662.53;1043519;28;20255;-68
2021/05/19 01:00:24;;;;;;;1.75;0.85;;;;;;;7.52;100.00;95671.22;1042902;28;20471;-68
2021/05/19 01:00:54;;;;;;;1.90;0.88;;;;;;;7.50;100.00;95662.81;1039357;28;20057;-70
2021/05/19 01:01:25;;;;;;;1.25;1.00;;;;;;;7.47;100.00;95658.09;1039264;28;21013;-68
2021/05/19 01:01:55;;;;;;;1.20;0.77;;;;;;;7.44;100.00;95655.97;1043804;28;20075;-69
2021/05/19 01:02:25;;;;;;;1.63;0.85;;;;;;;7.47;100.00;95668.53;1038957;28;20071;-69
2021/05/19 01:02:56;;;;;;;1.83;1.02;;;;;;;7.37;100.00;95650.16;1039414;28;20022;-69
2021/05/19 01:03:26;;;;;;;1.33;0.88;;;;;;;7.46;100.00;95662.53;1039439;28;20368;-68
2021/05/19 01:03:57;;;;;;;2.05;0.88;;;;;;;7.47;100.00;95658.09;1041891;28;20762;-70
2021/05/19 01:04:27;;;;;;;1.75;0.80;;;;;;;7.47;100.00;95658.09;1037802;28;20056;-69
2021/05/19 01:04:58;;;;;;;1.48;0.80;;;;;;;7.39;100.00;95655.94;1037207;28;20113;-69
2021/05/19 01:05:42;;;;;;;1.25;0.70;;;;;;;7.43;100.00;95657.00;1032771;28;20032;-69
2021/05/19 01:06:20;;;;;;;1.73;0.80;;;;;;;7.46;100.00;95661.75;1042992;28;20035;-68
2021/05/19 01:06:56;;;;;;;1.17;0.88;;;;;;;7.39;100.00;95650.72;1044489;28;20342;-69
2021/05/19 01:07:29;;;;;;;2.05;0.98;;;;;;;7.49;100.00;95666.47;1039423;28;20367;-68
2021/05/19 01:09:38;;;;;;;1.73;1.05;;;;;;;7.44;100.00;95671.63;1045574;28;20934;-68
2021/05/19 01:10:08;;;;;;;1.63;0.90;;;;;;;7.46;100.00;95661.75;1048456;28;20322;-69
2021/05/19 01:10:39;;;;;;;1.75;0.82;;;;;;;7.44;100.00;95658.56;1047151;28;20024;-69
2021/05/19 01:11:11;;;;;;;1.35;0.90;;;;;;;7.43;100.00;95662.22;1031667;28;20026;-70
2021/05/19 01:11:42;;;;;;;0.88;0.70;;;;;;;7.45;100.00;95665.41;1035460;28;20493;-69
2021/05/19 01:12:17;;;;;;;1.88;0.90;;;;;;;7.37;100.00;95653.53;1042761;28;20362;-69
2021/05/19 01:12:48;;;;;;;2.58;0.85;;;;;;;7.44;100.00;95663.81;1040331;28;20271;-68
2021/05/19 01:13:18;;;;;;;2.97;1.20;;;;;;;7.45;100.00;95665.41;1047563;28;20259;-71
2021/05/19 01:13:49;;;;;;;3.78;1.15;;;;;;;7.42;100.00;95665.88;1049010;28;20854;-68
2021/05/19 01:14:19;;;;;;;3.63;1.20;;;;;;;7.40;100.00;95667.94;1050109;28;20378;-69
2021/05/19 01:14:50;;;;;;;1.38;0.90;;;;;;;7.39;100.00;95668.97;1054924;28;20477;-69
2021/05/19 01:15:21;;;;;;;2.00;1.00;;;;;;;7.37;100.00;95663.97;1055970;28;20031;-69
2021/05/19 01:15:51;;;;;;;2.45;0.70;;;;;;;7.39;100.00;95655.94;1045741;28;20300;-69
2021/05/19 01:16:24;;;;;;;2.00;0.98;;;;;;;7.37;100.00;95668.41;1041065;28;20021;-69
2021/05/19 01:16:56;;;;;;;2.20;1.00;;;;;;;7.26;100.00;95655.25;1043393;28;20025;-69
2021/05/19 01:17:26;;;;;;;3.38;1.00;;;;;;;7.33;100.00;95668.91;1039165;28;20260;-68
2021/05/19 01:17:56;;;;;;;3.67;1.10;;;;;;;7.31;100.00;95676.22;1039379;28;20760;-68
2021/05/19 01:18:27;;;;;;;4.00;0.98;;;;;;;7.28;100.00;95666.25;1035398;28;20479;-68
2021/05/19 01:18:58;;;;;;;1.90;0.73;;;;;;;7.26;100.00;95664.91;1039350;28;20034;-70
2021/05/19 01:19:28;;;;;;;2.65;1.20;;;;;;;7.25;100.00;95666.72;1040824;28;20021;-68
2021/05/19 01:19:58;;;;;;;3.42;1.00;;;;;;;7.21;100.00;95655.22;1035185;28;20026;-69
2021/05/19 01:20:29;;;;;;;1.95;1.02;;;;;;;7.25;100.00;95671.94;1039151;28;20037;-69
2021/05/19 01:21:00;;;;;;;3.22;0.90;;;;;;;7.17;100.00;95656.69;1042866;28;20036;-69
2021/05/19 01:21:30;;;;;;;2.10;1.00;;;;;;;7.21;100.00;95665.66;1042885;28;20035;-69
2021/05/19 01:22:06;;;;;;;1.27;0.95;;;;;;;7.18;100.00;95671.34;1043247;28;20032;-70
2021/05/19 01:22:36;;;;;;;2.78;1.00;;;;;;;7.17;100.00;95669.75;1043477;28;20036;-69
2021/05/19 01:23:07;;;;;;;2.10;0.90;;;;;;;7.17;100.00;95666.34;1042600;28;20283;-68
2021/05/19 01:23:38;;;;;;;2.50;1.13;;;;;;;7.13;100.00;95666.06;1043333;28;20030;-68
2021/05/19 01:24:09;;;;;;;4.68;1.30;;;;;;;7.05;100.00;95653.44;1035196;28;20029;-69
2021/05/19 01:24:40;;;;;;;3.20;1.10;;;;;;;7.06;100.00;95657.63;1035042;28;20770;-69
2021/05/19 01:25:11;;;;;;;1.50;0.80;;;;;;;6.99;100.00;95659.63;1031059;28;20039;-68
2021/05/19 01:25:41;;;;;;;2.08;1.20;;;;;;;7.08;100.00;95668.63;1034344;28;20034;-68
2021/05/19 01:26:13;;;;;;;1.48;1.02;;;;;;;7.01;100.00;95655.75;1042931;28;20270;-68
2021/05/19 01:26:44;;;;;;;2.17;1.00;;;;;;;7.00;100.00;95656.75;1038435;28;20021;-67
2021/05/19 01:27:14;;;;;;;1.20;1.10;;;;;;;7.01;100.00;95660.19;1039047;28;20347;-69
2021/05/19 01:28:00;;;;;;;1.23;0.90;;;;;;;7.05;100.00;95666.47;1039350;28;20029;-68
2021/05/19 01:28:31;;;;;;;5.22;1.35;;;;;;;7.06;100.00;95673.28;1040646;28;20022;-69
2021/05/19 01:29:01;;;;;;;1.95;0.70;;;;;;;7.04;100.00;95667.50;1043658;28;20279;-69
2021/05/19 01:29:32;;;;;;;2.40;1.25;;;;;;;7.04;100.00;95670.09;1044651;28;20048;-68
2021/05/19 01:30:05;;;;;;;2.67;1.08;;;;;;;6.98;100.00;95658.84;1042132;28;20017;-68
2021/05/19 01:30:35;;;;;;;2.55;1.10;;;;;;;7.01;100.00;95662.78;1039643;28;20032;-69
2021/05/19 01:31:08;;;;;;;2.97;1.00;;;;;;;7.02;100.00;95661.75;1039073;28;20303;-68
2021/05/19 01:31:39;;;;;;;3.58;1.17;;;;;;;6.90;100.00;95648.78;1039261;28;20144;-69
2021/05/19 01:32:09;;;;;;;1.73;0.93;;;;;;;6.99;100.00;95662.22;1039152;28;20284;-68
2021/05/19 01:32:40;;;;;;;2.10;1.00;;;;;;;7.00;100.00;95664.59;1040452;28;20033;-69
2021/05/19 01:33:10;;;;;;;1.30;1.10;;;;;;;6.96;100.00;95658.28;1050042;28;20028;-66
2021/05/19 01:33:40;;;;;;;1.50;0.93;;;;;;;6.99;100.00;95663.00;1050193;28;20489;-69
2021/05/19 01:34:11;;;;;;;2.15;1.00;;;;;;;6.91;100.00;95652.19;1045227;28;20433;-70
2021/05/19 01:34:42;;;;;;;1.10;1.00;;;;;;;7.00;100.00;95664.59;1045743;28;20025;-68
2021/05/19 01:35:13;;;;;;;1.95;1.10;;;;;;;6.99;100.00;95657.78;1043261;28;20029;-70
2021/05/19 01:35:44;;;;;;;2.30;0.98;;;;;;;6.98;100.00;95666.66;1039384;28;20120;-68
2021/05/19 01:36:15;;;;;;;1.80;0.95;;;;;;;6.87;100.00;95645.88;1047629;28;20255;-69
2021/05/19 01:36:46;;;;;;;0.80;0.80;;;;;;;6.96;100.00;95660.09;1043522;28;20464;-68
2021/05/19 01:37:17;;;;;;;3.65;1.00;;;;;;;6.97;100.00;95664.28;1047390;28;20251;-69
2021/05/19 01:37:47;;;;;;;1.42;1.10;;;;;;;6.94;100.00;95664.75;1041241;28;20060;-68
2021/05/19 01:38:18;;;;;;;1.52;0.85;;;;;;;6.97;100.00;95669.50;1047240;28;20028;-68
2021/05/19 01:38:48;;;;;;;3.03;0.90;;;;;;;6.95;100.00;95661.13;1047242;28;20177;-68
2021/05/19 01:39:19;;;;;;;1.45;0.73;;;;;;;6.98;100.00;95665.88;1043361;28;20600;-69
2021/05/19 01:39:49;;;;;;;2.75;1.10;;;;;;;6.92;100.00;95662.41;1037349;28;20449;-69
2021/05/19 01:40:21;;;;;;;3.28;1.13;;;;;;;6.98;100.00;95668.47;1043466;28;20575;-68
2021/05/19 01:40:52;;;;;;;1.80;1.23;;;;;;;6.77;100.00;95633.50;1040080;28;20443;-68
2021/05/19 01:41:22;;;;;;;2.47;1.13;;;;;;;6.96;100.00;95667.94;1039245;28;20260;-68
2021/05/19 01:41:53;;;;;;;1.65;1.05;;;;;;;6.96;100.00;95665.31;1039872;28;20573;-69
2021/05/19 01:42:23;;;;;;;2.42;1.02;;;;;;;6.98;100.00;95668.47;1039446;28;20426;-69
2021/05/19 01:42:54;;;;;;;3.25;0.80;;;;;;;6.94;100.00;95662.16;1043522;28;20016;-68
2021/05/19 01:43:29;;;;;;;3.72;1.00;;;;;;;6.90;100.00;95653.22;1043319;28;20064;-68
2021/05/19 01:44:10;;;;;;;2.88;1.02;;;;;;;6.96;100.00;95663.50;1038161;28;20021;-69
2021/05/19 01:44:41;;;;;;;2.53;1.30;;;;;;;6.99;100.00;95672.66;1036904;28;20339;-69
2021/05/19 01:45:12;;;;;;;3.08;1.00;;;;;;;6.98;100.00;95671.09;1042412;28;21003;-68
2021/05/19 01:45:42;;;;;;;1.75;1.00;;;;;;;6.97;100.00;95669.50;1040055;28;20064;-67
2021/05/19 01:46:13;;;;;;;2.40;1.15;;;;;;;6.91;100.00;95660.03;1039022;28;20284;-69
2021/05/19 01:46:44;;;;;;;3.13;1.45;;;;;;;6.98;100.00;95671.09;1038865;28;20661;-69
2021/05/19 01:47:14;;;;;;;2.25;1.15;;;;;;;6.97;100.00;95670.28;1038942;28;20055;-69
2021/05/19 01:47:48;;;;;;;1.67;1.10;;;;;;;6.97;100.00;95666.88;1038835;28;20077;-68
2021/05/19 01:48:19;;;;;;;1.73;0.90;;;;;;;6.95;100.00;95666.34;1047201;28;20099;-70
2021/05/19 01:48:54;;;;;;;2.72;1.27;;;;;;;6.98;100.00;95666.66;1038824;28;20318;-69
2021/05/19 01:49:29;;;;;;;2.42;1.10;;;;;;;6.91;100.00;95654.81;1034815;28;20005;-68
2021/05/19 01:50:00;;;;;;;2.35;1.10;;;;;;;6.97;100.00;95664.28;1038944;28;20248;-70
2021/05/19 01:50:32;;;;;;;3.85;1.20;;;;;;;6.93;100.00;95655.38;1036405;28;20267;-70
2021/05/19 01:51:03;;;;;;;1.15;0.93;;;;;;;6.92;100.00;95651.19;1034944;28;20022;-69
2021/05/19 01:51:37;;;;;;;2.42;1.20;;;;;;;6.95;100.00;95655.91;1038705;28;20720;-69
2021/05/19 01:52:08;;;;;;;2.50;1.25;;;;;;;6.99;100.00;95662.22;1041962;28;20017;-68
2021/05/19 01:52:39;;;;;;;1.38;0.85;;;;;;;6.96;100.00;95660.09;1038937;28;20261;-69
2021/05/19 01:53:09;;;;;;;1.85;1.05;;;;;;;7.01;100.00;95666.19;1040104;28;20403;-69
2021/05/19 01:53:40;;;;;;;1.80;1.08;;;;;;;7.02;100.00;95666.97;1040103;28;20407;-69
2021/05/19 01:54:10;;;;;;;1.20;1.00;;;;;;;7.03;100.00;95668.53;1038540;28;20033;-69
2021/05/19 01:54:41;;;;;;;3.67;1.02;;;;;;;6.95;100.00;95654.09;1038627;28;20445;-69
2021/05/19 01:55:12;;;;;;;1.40;1.13;;;;;;;7.02;100.00;95661.75;1043107;28;20036;-69
2021/05/19 01:55:43;;;;;;;1.63;1.25;;;;;;;7.05;100.00;95666.47;1038273;28;20022;-69
2021/05/19 01:56:13;;;;;;;2.35;1.02;;;;;;;7.04;100.00;95675.31;1038263;28;20264;-69
2021/05/19 01:56:43;;;;;;;0.93;0.90;;;;;;;7.04;100.00;95670.91;1042693;28;20025;-70
2021/05/19 01:57:14;;;;;;;2.88;1.17;;;;;;;7.02;100.00;95670.34;1042840;28;20024;-70
2021/05/19 01:57:45;;;;;;;1.52;1.00;;;;;;;7.03;100.00;95669.31;1047137;28;20020;-69
2021/05/19 01:58:15;;;;;;;5.70;1.42;;;;;;;6.94;100.00;95655.13;1048359;28;20023;-70
2021/05/19 01:58:46;;;;;;;1.30;1.20;;;;;;;7.03;100.00;95669.31;1047061;28;20324;-69
2021/05/19 01:59:16;;;;;;;1.95;1.13;;;;;;;7.06;100.00;95670.66;1047017;28;20083;-69
2021/05/19 01:59:47;;;;;;;3.42;1.35;;;;;;;6.96;100.00;95657.50;1043357;28;20100;-68
2021/05/19 02:00:20;;;;;;;2.63;0.98;;;;;;;7.05;100.00;95676.91;1034589;28;20014;-69
2021/05/19 02:00:50;;;;;;;2.58;1.30;;;;;;;7.04;100.00;95667.50;1036024;28;20068;-68
2021/05/19 02:01:20;;;;;;;1.80;0.93;;;;;;;7.02;100.00;95674.78;1043008;28;20267;-69
2021/05/19 02:01:51;;;;;;;2.17;1.27;;;;;;;6.97;100.00;95666.88;1042861;28;20090;-69
2021/05/19 02:02:22;;;;;;;2.70;1.10;;;;;;;7.02;100.00;95669.56;1042957;28;20033;-69
2021/05/19 02:03:00;;;;;;;7.68;2.15;;;;;;;6.98;100.00;95663.28;1034896;28;20017;-70
2021/05/19 02:03:30;;;;;;;1.42;1.10;;;;;;;7.04;100.00;95677.94;1035483;28;20340;-69
2021/05/19 02:04:10;;;;;;;4.53;1.63;;;;;;;7.02;100.00;95669.56;1038865;28;20267;-70
2021/05/19 02:04:41;;;;;;;3.35;1.40;;;;;;;7.01;100.00;95665.41;1034655;28;20405;-69
2021/05/19 02:05:12;;;;;;;2.70;1.27;;;;;;;6.99;100.00;95665.63;1034096;28;20026;-70
2021/05/19 02:05:43;;;;;;;3.47;1.05;;;;;;;6.98;100.00;95658.06;1034242;28;20018;-68
2021/05/19 02:06:13;;;;;;;3.08;1.33;;;;;;;7.06;100.00;95683.72;1038505;28;20269;-69
2021/05/19 02:06:58;;;;;;;2.42;1.20;;;;;;;7.06;100.00;95673.28;1036344;28;20051;-70
2021/05/19 02:07:29;;;;;;;2.05;1.20;;;;;;;7.05;100.00;95674.31;1036733;28;20061;-69
2021/05/19 02:07:59;;;;;;;3.80;1.40;;;;;;;7.03;100.00;95679.75;1042958;28;20618;-69
2021/05/19 02:08:30;;;;;;;4.88;1.17;;;;;;;7.05;100.00;95676.91;1047341;28;20032;-70
2021/05/19 02:09:00;;;;;;;2.75;1.20;;;;;;;6.98;100.00;95661.44;1046911;28;20020;-70
2021/05/19 02:09:31;;;;;;;2.05;1.15;;;;;;;7.07;100.00;95677.44;1042961;28;20036;-69
2021/05/19 02:10:04;;;;;;;2.65;1.10;;;;;;;7.03;100.00;95671.94;1035395;28;20026;-68
2021/05/19 02:10:35;;;;;;;2.30;1.20;;;;;;;7.02;100.00;95669.56;1038885;28;20554;-69
2021/05/19 02:11:06;;;;;;;2.33;1.17;;;;;;;7.03;100.00;95681.56;1038662;28;20842;-70
2021/05/19 02:11:36;;;;;;;1.58;1.17;;;;;;;7.01;100.00;95673.22;1039857;28;20337;-68
2021/05/19 02:12:07;;;;;;;3.63;1.70;;;;;;;7.02;100.00;95674.78;1038730;28;20036;-69
2021/05/19 02:12:38;;;;;;;5.60;1.67;;;;;;;6.99;100.00;95670.84;1047207;28;20131;-69
2021/05/19 02:13:10;;;;;;;2.97;1.50;;;;;;;6.99;100.00;95667.44;1042698;28;20182;-68
2021/05/19 02:13:40;;;;;;;1.65;1.25;;;;;;;7.05;100.00;95676.91;1039889;28;20600;-69
2021/05/19 02:14:11;;;;;;;1.80;1.10;;;;;;;7.03;100.00;95677.16;1039193;28;20287;-69
2021/05/19 02:14:41;;;;;;;2.33;1.30;;;;;;;6.98;100.00;95671.88;1042926;28;20545;-68
2021/05/19 02:15:12;;;;;;;4.45;1.67;;;;;;;6.93;100.00;95668.41;1038594;28;20021;-69
2021/05/19 02:15:43;;;;;;;2.55;1.15;;;;;;;7.00;100.00;95679.44;1038262;28;20056;-68
2021/05/19 02:16:13;;;;;;;2.08;1.30;;;;;;;6.93;100.00;95663.19;1034759;28;20407;-69
2021/05/19 02:16:44;;;;;;;1.33;1.20;;;;;;;6.96;100.00;95671.31;1030696;28;20477;-69
2021/05/19 02:17:14;;;;;;;2.72;1.30;;;;;;;7.00;100.00;95684.66;1039689;28;20048;-69
2021/05/19 02:17:46;;;;;;;1.50;1.20;;;;;;;6.98;100.00;95677.09;1042462;28;20100;-69
2021/05/19 02:18:17;;;;;;;2.63;1.30;;;;;;;6.92;100.00;95672.06;1043585;28;20028;-69
2021/05/19 02:18:47;;;;;;;3.05;1.13;;;;;;;6.97;100.00;95679.94;1034222;28;20637;-69
2021/05/19 02:19:18;;;;;;;2.30;1.63;;;;;;;6.98;100.00;95678.91;1038602;28;20018;-68
2021/05/19 02:19:48;;;;;;;3.15;1.38;;;;;;;6.96;100.00;95686.97;1036354;28;20026;-68
2021/05/19 02:20:20;;;;;;;4.85;1.88;;;;;;;6.94;100.00;95680.41;1035994;28;20025;-69
2021/05/19 02:20:51;;;;;;;2.30;1.52;;;;;;;6.97;100.00;95679.94;1042370;28;20020;-69
2021/05/19 02:21:21;;;;;;;2.25;1.33;;;;;;;6.95;100.00;95679.41;1037900;28;20272;-69
2021/05/19 02:21:52;;;;;;;1.92;1.65;;;;;;;6.96;100.00;95686.19;1034454;28;20018;-68
2021/05/19 02:22:22;;;;;;;1.83;1.42;;;;;;;6.95;100.00;95685.41;1034588;28;20021;-69
2021/05/19 02:22:53;;;;;;;3.92;1.50;;;;;;;6.94;100.00;95683.81;1038095;28;20009;-69
2021/05/19 02:23:23;;;;;;;2.20;1.52;;;;;;;6.95;100.00;95682.00;1038687;28;20013;-69
2021/05/19 02:23:54;;;;;;;2.70;1.40;;;;;;;6.97;100.00;95685.16;1038716;28;20040;-68
2021/05/19 02:24:24;;;;;;;4.57;1.27;;;;;;;6.97;100.00;95690.34;1042298;28;20041;-69
2021/05/19 02:24:54;;;;;;;6.97;1.80;;;;;;;6.99;100.00;95690.91;1046975;28;20784;-69
2021/05/19 02:25:25;;;;;;;3.40;1.25;;;;;;;6.96;100.00;95686.19;1039969;28;20744;-70
2021/05/19 02:25:55;;;;;;;3.15;1.13;;;;;;;6.99;100.00;95683.88;1046315;28;20074;-70
2021/05/19 02:26:26;;;;;;;3.03;1.30;;;;;;;6.97;100.00;95685.94;1046346;28;20020;-68
2021/05/19 02:26:57;;;;;;;4.90;1.63;;;;;;;7.00;100.00;95689.88;1038650;28;20548;-69
2021/05/19 02:27:28;;;;;;;5.07;1.85;;;;;;;7.01;100.00;95688.88;1040634;28;20310;-69
2021/05/19 02:27:59;;;;;;;4.18;1.80;;;;;;;6.99;100.00;95688.31;1044592;28;20048;-68
2021/05/19 02:28:29;;;;;;;3.35;1.42;;;;;;;7.01;100.00;95689.66;1038746;28;20975;-69
2021/05/19 02:28:59;;;;;;;3.63;1.55;;;;;;;7.00;100.00;95684.66;1041614;28;20025;-69